createdAt,value
2022-12-25T00:00:21.165Z,11.81
2022-12-25T00:02:49.388Z,11.78
2022-12-25T00:05:17.700Z,11.66
2022-12-25T00:07:45.831Z,11.62
2022-12-25T00:10:14.834Z,11.52
2022-12-25T00:12:42.693Z,11.54
2022-12-25T00:15:11.109Z,11.45
2022-12-25T00:17:39.309Z,11.44
2022-12-25T00:20:08.337Z,11.37
2022-12-25T00:22:38.369Z,11.40
2022-12-25T00:25:06.775Z,11.32
2022-12-25T00:27:36.439Z,11.24
2022-12-25T00:30:04.853Z,11.15
2022-12-25T00:32:34.983Z,11.15
2022-12-25T00:35:03.030Z,11.27
2022-12-25T00:37:30.983Z,11.15
2022-12-25T00:39:58.961Z,11.08
2022-12-25T00:42:26.585Z,11.01
2022-12-25T00:44:55.598Z,11.01
2022-12-25T00:47:23.604Z,11.01
2022-12-25T00:49:51.446Z,11.05
2022-12-25T00:52:19.385Z,11.02
2022-12-25T00:54:47.067Z,11.04
2022-12-25T00:57:14.724Z,11.10
2022-12-25T00:59:42.332Z,11.23
2022-12-25T01:02:11.623Z,11.39
2022-12-25T01:04:39.489Z,11.40
2022-12-25T01:07:07.150Z,11.49
2022-12-25T01:09:34.789Z,11.56
2022-12-25T01:12:02.935Z,11.58
2022-12-25T01:14:30.743Z,11.67
2022-12-25T01:16:58.732Z,11.78
2022-12-25T01:19:28.002Z,11.93
2022-12-25T01:21:55.708Z,11.92
2022-12-25T01:24:23.423Z,11.87
2022-12-25T01:26:51.207Z,11.96
2022-12-25T01:29:19.895Z,12.02
2022-12-25T01:31:48.947Z,12.14
2022-12-25T01:34:16.723Z,12.19
2022-12-25T01:36:45.841Z,12.18
2022-12-25T01:39:13.802Z,12.08
2022-12-25T01:41:42.240Z,12.24
2022-12-25T01:44:43.260Z,12.24
2022-12-25T01:47:13.570Z,12.10
2022-12-25T01:49:46.351Z,12.14
2022-12-25T01:52:23.890Z,11.80
2022-12-25T01:54:57.606Z,11.94
2022-12-25T01:57:29.394Z,12.01
2022-12-25T01:59:59.608Z,11.91
2022-12-25T02:02:29.295Z,11.80
2022-12-25T02:05:03.749Z,11.77
2022-12-25T02:07:37.147Z,11.66
2022-12-25T02:10:05.622Z,11.72
2022-12-25T02:12:36.195Z,11.82
2022-12-25T02:15:09.941Z,11.84
2022-12-25T02:17:47.687Z,11.80
2022-12-25T02:20:49.192Z,11.71
2022-12-25T02:23:54.359Z,11.86
2022-12-25T02:26:54.372Z,11.99
2022-12-25T02:29:35.459Z,11.97
2022-12-25T02:32:13.682Z,11.89
2022-12-25T02:34:49.610Z,11.79
2022-12-25T02:37:27.099Z,11.75
2022-12-25T02:40:04.924Z,11.61
2022-12-25T02:42:41.598Z,11.68
2022-12-25T02:45:12.572Z,11.75
2022-12-25T02:47:40.916Z,11.78
2022-12-25T02:50:10.777Z,11.68
2022-12-25T02:52:42.048Z,11.76
2022-12-25T02:55:21.323Z,11.75
2022-12-25T02:57:54.144Z,11.62
2022-12-25T03:00:23.306Z,11.66
2022-12-25T03:02:54.676Z,11.46
2022-12-25T03:05:26.903Z,11.48
2022-12-25T03:08:00.303Z,11.49
2022-12-25T03:10:33.172Z,11.53
2022-12-25T03:13:09.741Z,11.37
2022-12-25T03:15:39.146Z,11.53
2022-12-25T03:18:14.402Z,11.52
2022-12-25T03:20:42.740Z,11.53
2022-12-25T03:23:13.865Z,11.43
2022-12-25T03:25:41.820Z,11.46
2022-12-25T03:28:09.562Z,11.53
2022-12-25T03:30:52.983Z,11.54
2022-12-25T03:33:45.092Z,11.62
2022-12-25T03:36:28.140Z,11.57
2022-12-25T03:39:07.231Z,11.52
2022-12-25T03:41:44.288Z,11.45
2022-12-25T03:44:23.025Z,11.42
2022-12-25T03:47:01.528Z,11.36
2022-12-25T03:49:39.540Z,11.28
2022-12-25T03:52:13.389Z,11.22
2022-12-25T03:54:46.416Z,11.18
2022-12-25T03:57:14.850Z,11.06
2022-12-25T03:59:42.565Z,10.91
2022-12-25T04:02:11.909Z,10.90
2022-12-25T04:04:39.895Z,10.93
2022-12-25T04:07:07.981Z,11.03
2022-12-25T04:09:35.683Z,11.04
2022-12-25T04:12:03.616Z,11.06
2022-12-25T04:14:31.467Z,10.96
2022-12-25T04:16:59.234Z,10.99
2022-12-25T04:19:28.367Z,10.94
2022-12-25T04:21:56.425Z,10.90
2022-12-25T04:24:24.500Z,10.88
2022-12-25T04:26:52.174Z,10.90
2022-12-25T04:29:20.110Z,10.79
2022-12-25T04:31:49.335Z,10.80
2022-12-25T04:34:16.996Z,10.79
2022-12-25T04:36:46.374Z,10.87
2022-12-25T04:39:14.783Z,10.89
2022-12-25T04:41:42.716Z,10.90
2022-12-25T04:44:10.678Z,10.94
2022-12-25T04:46:38.910Z,10.89
2022-12-25T04:49:06.735Z,10.87
2022-12-25T04:51:34.387Z,10.80
2022-12-25T04:54:03.650Z,10.86
2022-12-25T04:56:31.368Z,10.88
2022-12-25T04:58:59.307Z,10.79
2022-12-25T05:01:29.724Z,10.77
2022-12-25T05:03:57.726Z,10.83
2022-12-25T05:06:25.407Z,10.76
2022-12-25T05:08:53.145Z,10.86
2022-12-25T05:11:22.403Z,10.75
2022-12-25T05:13:50.115Z,10.85
2022-12-25T05:16:19.991Z,10.87
2022-12-25T05:18:52.808Z,10.85
2022-12-25T05:21:20.762Z,10.77
2022-12-25T05:23:50.180Z,10.65
2022-12-25T05:26:20.881Z,10.67
2022-12-25T05:28:50.497Z,10.65
2022-12-25T05:31:18.782Z,10.60
2022-12-25T05:33:53.243Z,10.60
2022-12-25T05:36:21.017Z,10.54
2022-12-25T05:38:48.753Z,10.59
2022-12-25T05:41:16.632Z,10.58
2022-12-25T05:43:44.370Z,10.47
2022-12-25T05:46:14.232Z,10.55
2022-12-25T05:48:42.021Z,10.50
2022-12-25T05:51:12.409Z,10.46
2022-12-25T05:53:42.061Z,10.48
2022-12-25T05:56:10.682Z,10.51
2022-12-25T05:58:40.024Z,10.42
2022-12-25T06:01:11.738Z,10.35
2022-12-25T06:03:40.917Z,10.39
2022-12-25T06:06:10.051Z,10.46
2022-12-25T06:08:38.032Z,10.46
2022-12-25T06:11:08.930Z,10.42
2022-12-25T06:13:37.632Z,10.39
2022-12-25T06:16:06.009Z,10.37
2022-12-25T06:18:35.482Z,10.42
2022-12-25T06:21:08.126Z,10.47
2022-12-25T06:23:36.584Z,10.41
2022-12-25T06:26:05.307Z,10.43
2022-12-25T06:28:32.970Z,10.41
2022-12-25T06:31:05.870Z,10.52
2022-12-25T06:33:33.477Z,10.58
2022-12-25T06:36:05.322Z,10.68
2022-12-25T06:38:34.381Z,10.75
2022-12-25T06:41:07.150Z,10.80
2022-12-25T06:43:34.878Z,10.81
2022-12-25T06:46:03.999Z,10.83
2022-12-25T06:48:32.458Z,10.93
2022-12-25T06:51:00.191Z,11.04
2022-12-25T06:53:33.524Z,11.08
2022-12-25T06:56:08.846Z,11.03
2022-12-25T06:58:36.527Z,11.14
2022-12-25T07:01:07.629Z,11.14
2022-12-25T07:03:35.408Z,11.02
2022-12-25T07:06:04.760Z,10.93
2022-12-25T07:08:32.783Z,10.91
2022-12-25T07:11:00.417Z,10.96
2022-12-25T07:13:29.429Z,11.05
2022-12-25T07:15:57.645Z,11.00
2022-12-25T07:18:25.714Z,11.04
2022-12-25T07:20:53.382Z,11.06
2022-12-25T07:23:21.042Z,11.28
2022-12-25T07:25:53.728Z,11.21
2022-12-25T07:28:21.905Z,11.35
2022-12-25T07:30:51.603Z,11.35
2022-12-25T07:33:19.696Z,11.43
2022-12-25T07:35:47.478Z,11.37
2022-12-25T07:38:15.194Z,11.17
2022-12-25T07:40:45.557Z,11.32
2022-12-25T07:43:14.481Z,11.30
2022-12-25T07:45:44.565Z,11.17
2022-12-25T07:48:16.844Z,11.32
2022-12-25T07:50:44.808Z,11.46
2022-12-25T07:53:12.931Z,11.37
2022-12-25T07:55:40.865Z,11.45
2022-12-25T07:58:08.570Z,11.47
2022-12-25T08:00:36.265Z,11.51
2022-12-25T08:03:04.295Z,11.60
2022-12-25T08:05:33.818Z,11.53
2022-12-25T08:08:01.423Z,11.63
2022-12-25T08:10:29.060Z,11.70
2022-12-25T08:12:56.652Z,11.80
2022-12-25T08:15:24.261Z,11.80
2022-12-25T08:17:51.967Z,11.81
2022-12-25T08:20:19.629Z,11.85
2022-12-25T08:22:48.579Z,11.82
2022-12-25T08:25:16.166Z,11.65
2022-12-25T08:27:43.829Z,11.63
2022-12-25T08:30:11.955Z,11.48
2022-12-25T08:32:39.675Z,11.54
2022-12-25T08:35:08.482Z,11.60
2022-12-25T08:37:36.332Z,11.56
2022-12-25T08:40:07.239Z,11.47
2022-12-25T08:42:34.986Z,11.69
2022-12-25T08:45:02.915Z,11.69
2022-12-25T08:47:31.107Z,11.55
2022-12-25T08:49:58.766Z,11.42
2022-12-25T08:52:27.964Z,11.49
2022-12-25T08:54:55.771Z,11.40
2022-12-25T08:57:25.026Z,11.48
2022-12-25T08:59:53.854Z,11.37
2022-12-25T09:02:21.832Z,11.20
2022-12-25T09:04:54.029Z,11.34
2022-12-25T09:07:22.714Z,11.46
2022-12-25T09:09:50.732Z,11.47
2022-12-25T09:12:21.073Z,11.48
2022-12-25T09:14:50.082Z,11.62
2022-12-25T09:17:17.678Z,11.67
2022-12-25T09:19:45.286Z,11.75
2022-12-25T09:22:13.112Z,11.99
2022-12-25T09:24:40.753Z,11.98
2022-12-25T09:27:08.584Z,12.01
2022-12-25T09:29:36.243Z,12.05
2022-12-25T09:32:06.280Z,12.11
2022-12-25T09:34:34.233Z,12.06
2022-12-25T09:37:02.084Z,12.13
2022-12-25T09:39:29.750Z,12.06
2022-12-25T09:42:02.212Z,12.16
2022-12-25T09:44:36.959Z,12.12
2022-12-25T09:47:12.009Z,12.28
2022-12-25T09:49:47.217Z,12.45
2022-12-25T09:52:22.541Z,12.52
2022-12-25T09:54:59.197Z,12.74
2022-12-25T09:57:28.262Z,12.99
2022-12-25T09:59:56.368Z,12.89
2022-12-25T10:02:59.724Z,12.99
2022-12-25T10:06:06.541Z,13.02
2022-12-25T10:09:11.361Z,12.95
2022-12-25T10:11:59.488Z,12.85
2022-12-25T10:14:39.780Z,12.81
2022-12-25T10:17:31.416Z,12.90
2022-12-25T10:20:16.647Z,13.07
2022-12-25T10:22:48.474Z,12.91
2022-12-25T10:25:19.217Z,12.71
2022-12-25T10:27:54.522Z,12.69
2022-12-25T10:30:24.659Z,12.72
2022-12-25T10:32:56.163Z,12.70
2022-12-25T10:35:28.796Z,12.82
2022-12-25T10:38:00.414Z,12.75
2022-12-25T10:40:37.089Z,12.91
2022-12-25T10:43:11.353Z,12.70
2022-12-25T10:45:48.073Z,13.07
2022-12-25T10:48:22.653Z,13.02
2022-12-25T10:50:55.732Z,12.85
2022-12-25T10:53:27.344Z,12.90
2022-12-25T10:55:58.407Z,12.75
2022-12-25T10:58:26.369Z,12.89
2022-12-25T11:00:57.842Z,13.04
2022-12-25T11:03:29.957Z,13.07
2022-12-25T11:05:59.670Z,13.04
2022-12-25T11:08:30.385Z,13.05
2022-12-25T11:11:02.548Z,12.70
2022-12-25T11:13:31.135Z,12.94
2022-12-25T11:16:05.246Z,13.11
2022-12-25T11:18:43.496Z,13.21
2022-12-25T11:21:18.207Z,13.10
2022-12-25T11:23:48.665Z,13.20
2022-12-25T11:26:18.176Z,13.13
2022-12-25T11:28:50.958Z,13.08
2022-12-25T11:31:21.802Z,13.00
2022-12-25T11:33:55.832Z,13.06
2022-12-25T11:36:35.361Z,12.99
2022-12-25T11:39:16.450Z,12.93
2022-12-25T11:41:44.903Z,12.91
2022-12-25T11:44:28.010Z,13.01
2022-12-25T11:46:56.267Z,13.21
2022-12-25T11:49:24.712Z,13.16
2022-12-25T11:52:00.040Z,13.35
2022-12-25T11:54:33.262Z,13.31
2022-12-25T11:57:06.625Z,13.32
2022-12-25T11:59:46.843Z,12.96
2022-12-25T12:02:27.090Z,12.90
2022-12-25T12:05:07.390Z,12.98
2022-12-25T12:07:48.263Z,13.15
2022-12-25T12:10:28.439Z,12.62
2022-12-25T12:13:13.403Z,12.74
2022-12-25T12:15:45.626Z,13.11
2022-12-25T12:18:24.147Z,13.13
2022-12-25T12:21:01.874Z,13.30
2022-12-25T12:23:35.139Z,13.27
2022-12-25T12:26:07.470Z,13.04
2022-12-25T12:28:44.718Z,12.81
2022-12-25T12:31:14.252Z,12.81
2022-12-25T12:33:50.524Z,13.04
2022-12-25T12:36:29.043Z,12.91
2022-12-25T12:39:05.439Z,12.90
2022-12-25T12:41:48.410Z,12.50
2022-12-25T12:44:18.544Z,12.97
2022-12-25T12:46:54.902Z,13.28
2022-12-25T12:49:26.633Z,12.89
2022-12-25T12:52:13.272Z,13.21
2022-12-25T12:54:56.831Z,13.39
2022-12-25T12:57:27.137Z,13.49
2022-12-25T12:59:59.926Z,13.74
2022-12-25T13:03:04.742Z,13.72
2022-12-25T13:05:40.497Z,13.67
2022-12-25T13:08:26.901Z,13.69
2022-12-25T13:11:19.339Z,13.57
2022-12-25T13:13:52.981Z,13.36
2022-12-25T13:16:27.029Z,13.40
2022-12-25T13:18:57.381Z,13.19
2022-12-25T13:21:27.686Z,13.34
2022-12-25T13:23:58.447Z,13.48
2022-12-25T13:26:29.141Z,13.39
2022-12-25T13:28:57.344Z,13.28
2022-12-25T13:31:27.729Z,13.29
2022-12-25T13:34:00.696Z,12.81
2022-12-25T13:36:34.224Z,12.96
2022-12-25T13:39:05.751Z,12.87
2022-12-25T13:41:43.114Z,13.16
2022-12-25T13:44:20.734Z,13.27
2022-12-25T13:46:48.537Z,13.41
2022-12-25T13:49:19.360Z,13.24
2022-12-25T13:51:47.401Z,13.56
2022-12-25T13:54:17.523Z,13.57
2022-12-25T13:56:54.626Z,13.52
2022-12-25T13:59:25.348Z,13.42
2022-12-25T14:01:53.494Z,13.59
2022-12-25T14:04:24.181Z,12.98
2022-12-25T14:06:53.124Z,13.06
2022-12-25T14:09:22.244Z,12.85
2022-12-25T14:11:52.886Z,13.07
2022-12-25T14:14:25.664Z,12.81
2022-12-25T14:16:58.463Z,12.63
2022-12-25T14:19:31.196Z,12.52
2022-12-25T14:22:03.887Z,12.53
2022-12-25T14:24:34.441Z,12.81
2022-12-25T14:27:07.450Z,12.59
2022-12-25T14:29:40.071Z,12.58
2022-12-25T14:32:15.836Z,12.67
2022-12-25T14:34:46.358Z,12.70
2022-12-25T14:37:17.998Z,12.67
2022-12-25T14:39:54.074Z,12.85
2022-12-25T14:42:29.095Z,13.04
2022-12-25T14:45:03.503Z,12.94
2022-12-25T14:47:32.708Z,13.01
2022-12-25T14:50:00.393Z,13.07
2022-12-25T14:52:42.052Z,13.00
2022-12-25T14:55:20.300Z,12.83
2022-12-25T14:57:54.119Z,12.92
2022-12-25T15:00:28.863Z,12.95
2022-12-25T15:03:00.537Z,12.77
2022-12-25T15:05:32.642Z,12.79
2022-12-25T15:08:23.766Z,12.85
2022-12-25T15:11:01.538Z,12.90
2022-12-25T15:13:31.794Z,12.91
2022-12-25T15:16:06.193Z,12.92
2022-12-25T15:18:41.503Z,12.91
2022-12-25T15:21:17.293Z,12.98
2022-12-25T15:23:45.134Z,12.87
2022-12-25T15:26:14.554Z,12.78
2022-12-25T15:28:43.782Z,12.77
2022-12-25T15:31:21.130Z,12.69
2022-12-25T15:33:49.448Z,12.65
2022-12-25T15:36:17.608Z,12.81
2022-12-25T15:38:45.419Z,12.49
2022-12-25T15:41:16.086Z,12.39
2022-12-25T15:43:45.075Z,12.33
2022-12-25T15:46:16.019Z,12.19
2022-12-25T15:48:44.311Z,12.21
2022-12-25T15:51:12.834Z,11.94
2022-12-25T15:53:40.923Z,11.75
2022-12-25T15:56:11.400Z,12.04
2022-12-25T15:58:40.302Z,12.04
2022-12-25T16:01:13.798Z,12.00
2022-12-25T16:03:41.589Z,11.98
2022-12-25T16:06:12.018Z,11.74
2022-12-25T16:08:40.154Z,11.82
2022-12-25T16:11:09.427Z,11.81
2022-12-25T16:13:38.177Z,11.88
2022-12-25T16:16:11.925Z,11.69
2022-12-25T16:18:47.708Z,11.71
2022-12-25T16:21:20.871Z,11.59
2022-12-25T16:23:49.070Z,11.63
2022-12-25T16:26:17.405Z,11.66
2022-12-25T16:28:45.186Z,11.71
2022-12-25T16:31:12.896Z,11.58
2022-12-25T16:33:42.699Z,11.68
2022-12-25T16:36:10.362Z,11.62
2022-12-25T16:38:38.242Z,11.58
2022-12-25T16:41:07.259Z,11.59
2022-12-25T16:43:39.105Z,11.55
2022-12-25T16:46:09.881Z,11.46
2022-12-25T16:48:38.090Z,11.53
2022-12-25T16:51:15.616Z,11.43
2022-12-25T16:53:44.303Z,11.46
2022-12-25T16:56:15.326Z,11.44
2022-12-25T16:58:44.901Z,11.41
2022-12-25T17:01:14.697Z,11.29
2022-12-25T17:03:43.169Z,11.29
2022-12-25T17:06:16.357Z,11.37
2022-12-25T17:08:44.821Z,11.28
2022-12-25T17:11:13.391Z,11.34
2022-12-25T17:13:42.532Z,11.34
2022-12-25T17:16:15.711Z,11.35
2022-12-25T17:18:43.935Z,11.45
2022-12-25T17:21:14.194Z,11.50
2022-12-25T17:23:42.470Z,11.40
2022-12-25T17:26:10.329Z,11.36
2022-12-25T17:28:38.440Z,10.80
2022-12-25T17:31:07.797Z,10.55
2022-12-25T17:33:38.766Z,10.65
2022-12-25T17:36:10.970Z,10.73
2022-12-25T17:38:42.455Z,10.75
2022-12-25T17:41:13.606Z,10.86
2022-12-25T17:43:42.074Z,10.89
2022-12-25T17:46:13.832Z,10.58
2022-12-25T17:48:42.154Z,10.55
2022-12-25T17:51:15.546Z,10.47
2022-12-25T17:53:46.782Z,10.66
2022-12-25T17:56:15.593Z,10.64
2022-12-25T17:58:43.960Z,10.67
2022-12-25T18:01:14.044Z,10.62
2022-12-25T18:03:45.863Z,10.55
2022-12-25T18:06:16.849Z,10.54
2022-12-25T18:08:47.897Z,10.64
2022-12-25T18:11:18.914Z,10.72
2022-12-25T18:13:48.842Z,10.74
2022-12-25T18:16:17.751Z,10.74
2022-12-25T18:18:51.828Z,10.72
2022-12-25T18:21:21.511Z,10.75
2022-12-25T18:23:53.587Z,10.65
2022-12-25T18:26:21.557Z,10.50
2022-12-25T18:28:50.044Z,10.51
2022-12-25T18:31:20.982Z,10.50
2022-12-25T18:33:50.041Z,10.47
2022-12-25T18:36:21.764Z,10.49
2022-12-25T18:38:52.653Z,10.65
2022-12-25T18:41:22.625Z,10.72
2022-12-25T18:43:52.222Z,10.68
2022-12-25T18:46:25.167Z,10.74
2022-12-25T18:48:55.419Z,10.53
2022-12-25T18:51:24.236Z,10.46
2022-12-25T18:53:53.559Z,10.40
2022-12-25T18:56:22.799Z,10.20
2022-12-25T18:58:52.670Z,10.34
2022-12-25T19:01:22.643Z,10.23
2022-12-25T19:03:51.319Z,10.21
2022-12-25T19:06:20.309Z,10.19
2022-12-25T19:08:48.459Z,10.22
2022-12-25T19:11:18.630Z,10.18
2022-12-25T19:13:46.711Z,10.22
2022-12-25T19:16:14.974Z,10.21
2022-12-25T19:18:43.588Z,10.31
2022-12-25T19:21:11.830Z,10.17
2022-12-25T19:23:41.202Z,10.21
2022-12-25T19:26:11.052Z,10.15
2022-12-25T19:28:41.580Z,10.20
2022-12-25T19:31:11.185Z,10.33
2022-12-25T19:33:40.902Z,10.37
2022-12-25T19:36:11.632Z,10.35
2022-12-25T19:38:39.500Z,10.43
2022-12-25T19:41:08.104Z,10.33
2022-12-25T19:43:39.486Z,10.44
2022-12-25T19:46:16.439Z,10.53
2022-12-25T19:48:44.756Z,10.51
2022-12-25T19:51:15.354Z,10.38
2022-12-25T19:53:46.812Z,10.36
2022-12-25T19:56:15.532Z,10.35
2022-12-25T19:58:43.640Z,10.34
2022-12-25T20:01:16.749Z,10.38
2022-12-25T20:03:46.344Z,10.29
2022-12-25T20:06:18.777Z,10.36
2022-12-25T20:08:47.835Z,10.33
2022-12-25T20:11:16.032Z,10.15
2022-12-25T20:13:44.391Z,10.29
2022-12-25T20:16:13.640Z,10.24
2022-12-25T20:18:41.555Z,10.22
2022-12-25T20:21:12.610Z,10.33
2022-12-25T20:23:41.012Z,10.46
2022-12-25T20:26:09.916Z,10.48
2022-12-25T20:28:39.570Z,10.50
2022-12-25T20:31:12.858Z,10.28
2022-12-25T20:33:42.197Z,10.32
2022-12-25T20:36:10.649Z,10.19
2022-12-25T20:38:38.896Z,10.12
2022-12-25T20:41:26.760Z,10.02
2022-12-25T20:43:55.754Z,10.01
2022-12-25T20:46:24.248Z,9.98
2022-12-25T20:48:53.509Z,10.10
2022-12-25T20:51:24.116Z,10.17
2022-12-25T20:53:52.492Z,9.94
2022-12-25T20:56:23.852Z,9.96
2022-12-25T20:58:54.253Z,10.02
2022-12-25T21:01:23.071Z,10.09
2022-12-25T21:03:51.080Z,10.22
2022-12-25T21:06:20.172Z,10.28
2022-12-25T21:08:48.155Z,10.23
2022-12-25T21:11:16.190Z,10.10
2022-12-25T21:13:47.229Z,10.11
2022-12-25T21:16:16.626Z,10.02
2022-12-25T21:18:44.505Z,10.16
2022-12-25T21:21:12.499Z,10.30
2022-12-25T21:23:41.780Z,10.26
2022-12-25T21:26:11.456Z,10.39
2022-12-25T21:28:39.803Z,10.23
2022-12-25T21:31:08.834Z,10.25
2022-12-25T21:33:38.378Z,10.25
2022-12-25T21:36:08.209Z,10.27
2022-12-25T21:38:37.019Z,10.31
2022-12-25T21:41:08.876Z,10.23
2022-12-25T21:43:39.209Z,10.31
2022-12-25T21:46:09.566Z,10.24
2022-12-25T21:48:38.472Z,10.01
2022-12-25T21:51:08.821Z,10.03
2022-12-25T21:53:36.397Z,10.04
2022-12-25T21:56:07.586Z,10.16
2022-12-25T21:58:35.363Z,10.13
2022-12-25T22:01:03.885Z,10.00
2022-12-25T22:03:33.165Z,10.00
2022-12-25T22:06:03.778Z,10.02
2022-12-25T22:08:32.411Z,10.13
2022-12-25T22:11:03.401Z,10.13
2022-12-25T22:13:32.490Z,10.00
2022-12-25T22:16:04.232Z,9.92
2022-12-25T22:18:31.915Z,10.02
2022-12-25T22:21:02.363Z,10.00
2022-12-25T22:23:30.028Z,10.21
2022-12-25T22:25:57.588Z,10.05
2022-12-25T22:28:25.367Z,10.12
2022-12-25T22:30:55.441Z,10.10
2022-12-25T22:33:23.092Z,10.05
2022-12-25T22:35:51.735Z,10.01
2022-12-25T22:38:19.452Z,9.98
2022-12-25T22:40:47.201Z,10.04
2022-12-25T22:43:14.939Z,10.01
2022-12-25T22:45:42.496Z,9.99
2022-12-25T22:48:11.726Z,10.11
2022-12-25T22:50:39.372Z,10.20
2022-12-25T22:53:07.072Z,10.21
2022-12-25T22:55:34.638Z,9.99
2022-12-25T22:58:02.251Z,10.08
2022-12-25T23:00:30.039Z,10.08
2022-12-25T23:02:58.567Z,10.13
2022-12-25T23:05:27.771Z,10.10
2022-12-25T23:07:55.357Z,10.09
2022-12-25T23:10:23.009Z,9.93
2022-12-25T23:12:50.576Z,9.97
2022-12-25T23:15:19.225Z,10.14
2022-12-25T23:17:46.998Z,10.07
2022-12-25T23:20:14.986Z,10.06
2022-12-25T23:22:44.715Z,10.00
2022-12-25T23:25:15.266Z,10.01
2022-12-25T23:27:44.260Z,9.98
2022-12-25T23:30:19.468Z,10.00
2022-12-25T23:32:48.535Z,10.00
2022-12-25T23:35:16.184Z,10.14
2022-12-25T23:37:45.444Z,10.16
2022-12-25T23:40:13.244Z,10.03
2022-12-25T23:42:41.259Z,9.96
2022-12-25T23:45:09.759Z,9.85
2022-12-25T23:47:37.635Z,9.90
2022-12-25T23:50:06.476Z,9.97
2022-12-25T23:52:34.792Z,10.06
2022-12-25T23:55:04.123Z,10.06
2022-12-25T23:57:32.014Z,10.10
2022-12-25T23:59:59.551Z,10.17
